Anita, Iowa
Current Conditions -  °F | °C
As of 1:35 AM on Wednesday 26 Nov 2014 (Local Time) from KAIO Reporting Station
Light Snow Light Snow  
Wind Chill: 23°   Ceiling: 400
Heat Index: 32°   Visibility: 1.2mi
Dew Point: 32°   Wind: 13mph
Humidity: 100%   Direction: 170°S
Pressure: 29.85"   Gusts: NA
Location:  41.45°N, 94.76°W
Report Text: KAIO 260735Z AUTO 17011KT 1 1/4SM -SN OVC004 00/M00 A2985 RMK AO2
Loading
Personal Weather Stations






























Interactive Weather Map New forecast layout! Learn more

10-Day Weather Forecast

Advertisements
Track Severe Weather on mobile